This is the latest recevied weather packets stored in our database for station/object K4DFD-13. If no packets are shown the sender has not sent any weather packets the latest 10 day(s).
| Time | Temp. | Humidity | Pressure | Rain* | Wind** | Luminosity | Snow |
|---|---|---|---|---|---|---|---|
| 1777140716 | 22.22° C | 65% | 1011 hPa | 0 mm | - | - | - |
| 1777140416 | 22.22° C | 63% | 1010.8 hPa | 0 mm | - | - | - |
| 1777140116 | 21.67° C | 63% | 1011 hPa | 0 mm | - | - | - |
| 1777139815 | 21.67° C | 65% | 1011 hPa | 0 mm | - | - | - |
| 1777139515 | 21.11° C | 68% | 1010.8 hPa | 0.25 mm | - | - | - |
| 1777139214 | 21.11° C | 81% | 1011 hPa | 0.25 mm | - | - | - |
| 1777138914 | 20.56° C | 81% | 1011 hPa | 1.78 mm | - | - | - |
| 1777138614 | 20° C | 82% | 1010.8 hPa | 1.78 mm | - | - | - |
| 1777138313 | 20° C | 84% | 1011 hPa | 1.78 mm | - | - | - |
| 1777138013 | 19.44° C | 83% | 1011 hPa | 1.78 mm | - | - | - |
| 1777137713 | 19.44° C | 86% | 1011 hPa | 3.81 mm | - | - | - |
| 1777137412 | 18.89° C | 88% | 1011.1 hPa | 3.81 mm | - | - | - |
| 1777137112 | 18.89° C | 88% | 1011.3 hPa | 3.81 mm | - | - | - |
| 1777136812 | 18.33° C | 87% | 1011.3 hPa | 4.06 mm | - | - | - |
| 1777136511 | 18.33° C | 88% | 1011.4 hPa | 4.06 mm | - | - | - |
| 1777136211 | 18.33° C | 91% | 1011.6 hPa | 4.06 mm | - | - | - |
| 1777135911 | 18.33° C | 90% | 1011.6 hPa | 3.3 mm | - | - | - |
| 1777135610 | 18.89° C | 91% | 1011.6 hPa | 3.05 mm | - | - | - |
| 1777135310 | 18.89° C | 90% | 1011.6 hPa | 3.05 mm | - | - | - |
| 1777135009 | 19.44° C | 90% | 1011.7 hPa | 4.06 mm | - | - | - |
| 1777134709 | 20° C | 78% | 1011.7 hPa | 1.02 mm | - | - | - |
| 1777134409 | 21.11° C | 73% | 1011.9 hPa | 0.25 mm | - | - | - |
| 1777134108 | 21.67° C | 68% | 1011.9 hPa | 0.25 mm | - | - | - |
| 1777133808 | 22.22° C | 63% | 1011.8 hPa | 0.25 mm | - | - | - |
| 1777133508 | 22.78° C | 64% | 1011.8 hPa | 0.25 mm | - | - | - |
* Rain latest hour (hover to see other rain measurements)
** Current wind speed in m/s (hover to see current wind gust speed)